Time;durP1;ratioP1;P1;durP2;ratioP2;P2;SDS_P1;SDS_P2;PMS_P1;PMS_P2;Temp;Humidity;BMP_temperature;BMP_pressure;BME280_temperature;BME280_humidity;BME280_pressure;Samples;Min_cycle;Max_cycle;Signal;HPM_P1;HPM_P2
2020/12/05 00:02:15;;;;;;;28.65;13.88;;;3.40;99.90;;;;;;5046262;28;20191;-82
2020/12/05 00:04:41;;;;;;;28.10;14.32;;;3.50;99.90;;;;;;5042679;28;20200;-81
2020/12/05 00:07:07;;;;;;;26.20;14.60;;;3.50;99.90;;;;;;5043323;28;20181;-81
2020/12/05 00:09:32;;;;;;;25.27;14.60;;;3.40;99.90;;;;;;5042834;28;20205;-82
2020/12/05 00:12:02;;;;;;;25.83;12.90;;;3.40;99.90;;;;;;5008259;28;20184;-81
2020/12/05 00:14:27;;;;;;;22.05;12.65;;;3.40;99.90;;;;;;5041963;28;20441;-81
2020/12/05 00:16:53;;;;;;;27.60;13.57;;;3.50;99.90;;;;;;5026147;28;20177;-80
2020/12/05 00:19:19;;;;;;;28.60;15.60;;;3.10;99.90;;;;;;5025478;28;20415;-80
2020/12/05 00:21:45;;;;;;;23.30;12.23;;;3.20;99.90;;;;;;5025102;28;20269;-80
2020/12/05 00:24:14;;;;;;;25.75;13.18;;;3.20;99.90;;;;;;5042551;28;20533;-81
2020/12/05 00:26:39;;;;;;;23.90;13.73;;;3.30;99.90;;;;;;5042328;28;20174;-80
2020/12/05 00:29:05;;;;;;;27.13;13.07;;;3.50;99.90;;;;;;5041296;28;20201;-80
2020/12/05 00:31:31;;;;;;;27.43;15.00;;;3.60;99.90;;;;;;5042620;28;20703;-81
2020/12/05 00:33:56;;;;;;;24.90;13.90;;;3.60;99.90;;;;;;5024329;28;20288;-80
2020/12/05 00:36:22;;;;;;;30.30;14.17;;;3.50;99.90;;;;;;5041110;28;20189;-80
2020/12/05 00:38:47;;;;;;;22.73;12.17;;;3.20;99.90;;;;;;5040637;28;20189;-80
2020/12/05 00:41:18;;;;;;;28.23;13.17;;;2.90;99.90;;;;;;5041226;28;20201;-81
2020/12/05 00:43:44;;;;;;;29.65;14.50;;;2.90;99.90;;;;;;5042790;28;20587;-81
2020/12/05 00:46:09;;;;;;;30.07;14.43;;;2.60;99.90;;;;;;5022395;28;20201;-81
2020/12/05 00:48:35;;;;;;;27.10;13.87;;;2.50;99.90;;;;;;5039477;28;20416;-81
2020/12/05 00:51:04;;;;;;;24.07;13.23;;;2.60;99.90;;;;;;5037800;28;20625;-81
2020/12/05 00:53:29;;;;;;;25.85;12.88;;;2.60;99.90;;;;;;5037589;28;20649;-82
2020/12/05 00:55:55;;;;;;;32.07;13.37;;;2.70;99.90;;;;;;5038106;28;20215;-81
2020/12/05 00:58:21;;;;;;;29.20;16.37;;;2.80;99.90;;;;;;5038918;28;20228;-80
2020/12/05 01:00:46;;;;;;;31.93;13.37;;;2.80;99.90;;;;;;5039999;28;20184;-80
2020/12/05 01:03:14;;;;;;;29.30;16.37;;;2.70;99.90;;;;;;5038037;28;20206;-80
2020/12/05 01:05:40;;;;;;;30.00;14.75;;;2.70;99.90;;;;;;5043728;28;20205;-80
2020/12/05 01:08:07;;;;;;;28.00;14.43;;;2.80;99.90;;;;;;5020793;28;20178;-81
2020/12/05 01:10:34;;;;;;;31.92;13.68;;;3.20;99.90;;;;;;5038679;28;20681;-81
2020/12/05 01:13:04;;;;;;;23.67;13.95;;;3.00;99.90;;;;;;5036946;28;20548;-81
2020/12/05 01:15:33;;;;;;;23.50;12.30;;;3.10;99.90;;;;;;5037066;28;20197;-80
2020/12/05 01:17:58;;;;;;;23.88;13.55;;;3.20;99.90;;;;;;5038731;28;20200;-80
2020/12/05 01:20:24;;;;;;;26.93;14.20;;;3.30;99.90;;;;;;5004409;28;20185;-80
2020/12/05 01:22:50;;;;;;;22.07;13.23;;;3.20;99.90;;;;;;5037284;28;20260;-79
2020/12/05 01:25:16;;;;;;;27.48;15.85;;;3.30;99.90;;;;;;5041579;28;20602;-81
2020/12/05 01:27:43;;;;;;;30.00;13.30;;;3.30;99.90;;;;;;5007856;28;20178;-80
2020/12/05 01:30:12;;;;;;;29.05;14.60;;;3.30;99.90;;;;;;5023958;28;20197;-80
2020/12/05 01:32:38;;;;;;;23.63;12.65;;;3.10;99.90;;;;;;5039274;28;20169;-81
2020/12/05 01:35:05;;;;;;;32.90;14.87;;;3.30;99.90;;;;;;5039420;28;20193;-81
2020/12/05 01:37:31;;;;;;;29.13;13.48;;;3.20;99.90;;;;;;5040799;28;20169;-80
2020/12/05 01:39:57;;;;;;;18.90;12.30;;;3.20;99.90;;;;;;5039097;28;20205;-81
2020/12/05 01:42:23;;;;;;;24.75;12.55;;;3.50;99.90;;;;;;5040771;28;20192;-81
2020/12/05 01:44:49;;;;;;;24.37;13.40;;;3.20;99.90;;;;;;5040110;28;20192;-81
2020/12/05 01:47:17;;;;;;;31.40;13.97;;;3.40;99.90;;;;;;5040455;28;20906;-80
2020/12/05 01:49:43;;;;;;;30.52;12.93;;;3.40;99.90;;;;;;5023391;28;20561;-80
2020/12/05 01:52:09;;;;;;;24.30;12.45;;;3.40;99.90;;;;;;5040363;28;20237;-84
2020/12/05 01:54:36;;;;;;;23.13;12.00;;;3.40;99.90;;;;;;5039371;28;20221;-81
2020/12/05 01:57:04;;;;;;;20.42;11.63;;;3.40;99.90;;;;;;5041177;28;20416;-80
2020/12/05 01:59:30;;;;;;;25.92;13.00;;;3.50;99.90;;;;;;5038953;28;20185;-83
2020/12/05 02:01:57;;;;;;;30.27;13.73;;;3.30;99.90;;;;;;5040472;28;20169;-81
2020/12/05 02:04:29;;;;;;;27.33;12.20;;;3.40;99.90;;;;;;5039707;28;20197;-81
2020/12/05 02:07:06;;;;;;;25.75;11.68;;;3.30;99.90;;;;;;5041203;28;20649;-83
2020/12/05 02:09:36;;;;;;;24.15;13.52;;;3.20;99.90;;;;;;5044121;28;20252;-83
2020/12/05 02:12:35;;;;;;;23.55;13.45;;;3.30;99.90;;;;;;5038160;28;20682;-81
2020/12/05 02:15:12;;;;;;;25.33;12.15;;;3.30;99.90;;;;;;5037356;28;20197;-81
2020/12/05 02:17:50;;;;;;;27.38;13.95;;;3.20;99.90;;;;;;5038272;28;20192;-82
2020/12/05 02:20:19;;;;;;;22.90;14.73;;;3.00;99.90;;;;;;5038024;28;20169;-81
2020/12/05 02:22:46;;;;;;;25.65;12.48;;;3.20;99.90;;;;;;5038796;28;20228;-79
2020/12/05 02:25:13;;;;;;;22.42;11.43;;;3.20;99.90;;;;;;5037660;28;20308;-81
2020/12/05 02:27:42;;;;;;;22.63;10.07;;;3.30;99.90;;;;;;5037562;28;20767;-80
2020/12/05 02:30:08;;;;;;;20.35;11.10;;;3.10;99.90;;;;;;5036497;28;20711;-80
2020/12/05 02:32:34;;;;;;;21.55;11.30;;;3.10;99.90;;;;;;5035739;28;20224;-81
2020/12/05 02:35:00;;;;;;;24.03;13.00;;;3.30;99.90;;;;;;5036966;28;20595;-80
2020/12/05 02:37:31;;;;;;;20.93;11.60;;;3.10;99.90;;;;;;5019909;28;20169;-80
2020/12/05 02:39:59;;;;;;;22.27;12.73;;;3.00;99.90;;;;;;5035918;28;20212;-81
2020/12/05 02:42:25;;;;;;;22.85;13.13;;;3.00;99.90;;;;;;5019245;28;20177;-81
2020/12/05 02:44:53;;;;;;;23.97;13.53;;;3.20;99.90;;;;;;5036542;28;20247;-81
2020/12/05 02:47:27;;;;;;;19.77;10.80;;;3.00;99.90;;;;;;5018158;28;20177;-81
2020/12/05 02:49:56;;;;;;;27.15;13.55;;;3.10;99.90;;;;;;5034763;28;20703;-80
2020/12/05 02:52:22;;;;;;;28.42;12.02;;;3.20;99.90;;;;;;5038981;28;20664;-80
2020/12/05 02:54:50;;;;;;;25.50;14.33;;;3.20;99.90;;;;;;5005380;28;20193;-81
2020/12/05 02:57:16;;;;;;;31.63;13.20;;;3.10;99.90;;;;;;5040381;28;20185;-81
2020/12/05 02:59:42;;;;;;;20.87;11.20;;;3.10;99.90;;;;;;5006098;28;20197;-80
2020/12/05 03:02:07;;;;;;;25.80;13.37;;;3.10;99.90;;;;;;5022479;28;20252;-80
2020/12/05 03:04:33;;;;;;;23.63;11.27;;;3.10;99.90;;;;;;5039898;28;20232;-80
2020/12/05 03:06:58;;;;;;;20.17;11.97;;;3.30;99.90;;;;;;5022532;28;20207;-81
2020/12/05 03:09:24;;;;;;;22.30;11.63;;;3.20;99.90;;;;;;5022734;28;20276;-80
2020/12/05 03:11:50;;;;;;;20.90;12.57;;;3.10;99.90;;;;;;5022947;28;20181;-81
2020/12/05 03:14:16;;;;;;;20.70;12.37;;;3.00;99.90;;;;;;5044979;28;20408;-80
2020/12/05 03:16:41;;;;;;;26.80;11.70;;;3.00;99.90;;;;;;5039573;28;20173;-81
2020/12/05 03:19:07;;;;;;;27.20;13.70;;;2.90;99.90;;;;;;5022112;28;20319;-80
2020/12/05 03:21:33;;;;;;;26.83;12.90;;;3.00;99.90;;;;;;5021944;28;20225;-81
2020/12/05 03:23:58;;;;;;;22.90;12.27;;;3.20;99.90;;;;;;5039186;28;20170;-80
2020/12/05 03:26:24;;;;;;;28.90;13.43;;;3.20;99.90;;;;;;5005222;28;20708;-80
2020/12/05 03:28:49;;;;;;;27.00;12.37;;;3.20;99.90;;;;;;5005149;28;20201;-80
2020/12/05 03:31:36;;;;;;;23.90;12.13;;;3.00;99.90;;;;;;5038389;28;20174;-80
2020/12/05 03:34:04;;;;;;;22.20;12.80;;;2.70;99.90;;;;;;5040084;28;20538;-80
2020/12/05 03:36:32;;;;;;;27.13;13.55;;;3.00;99.90;;;;;;5022060;28;20184;-80
2020/12/05 03:39:00;;;;;;;27.40;13.23;;;2.90;99.90;;;;;;5039000;28;20170;-80
2020/12/05 03:41:26;;;;;;;27.35;13.75;;;2.80;99.90;;;;;;5039179;28;20165;-81
2020/12/05 03:43:52;;;;;;;25.13;12.67;;;2.80;99.90;;;;;;5040075;28;20187;-81
2020/12/05 03:46:18;;;;;;;29.23;11.80;;;2.90;99.90;;;;;;5039460;28;20235;-81
2020/12/05 03:48:43;;;;;;;24.83;11.05;;;3.00;99.90;;;;;;5039942;28;20184;-80
2020/12/05 03:51:09;;;;;;;23.97;10.90;;;2.90;99.90;;;;;;5037979;28;20177;-81
2020/12/05 03:53:35;;;;;;;19.20;11.43;;;2.90;99.90;;;;;;5038965;28;20165;-79
2020/12/05 03:56:00;;;;;;;23.97;11.30;;;3.10;99.90;;;;;;5037297;28;20193;-81
2020/12/05 03:58:26;;;;;;;30.20;13.43;;;3.10;99.90;;;;;;5021472;28;20189;-81
2020/12/05 04:00:52;;;;;;;26.23;12.77;;;3.10;99.90;;;;;;5037511;28;20185;-80
2020/12/05 04:03:17;;;;;;;23.80;11.60;;;3.20;99.90;;;;;;5021146;28;20180;-80
2020/12/05 04:05:43;;;;;;;18.80;11.30;;;3.00;99.90;;;;;;5037927;28;20672;-80
2020/12/05 04:08:12;;;;;;;21.07;11.30;;;2.60;99.90;;;;;;5037389;28;20190;-80
2020/12/05 04:10:38;;;;;;;26.75;12.60;;;2.20;99.90;;;;;;5037063;28;20216;-80
2020/12/05 04:13:03;;;;;;;19.93;9.87;;;2.20;99.90;;;;;;5037093;28;20177;-80
2020/12/05 04:15:29;;;;;;;27.57;12.50;;;2.20;99.90;;;;;;5038254;28;20221;-81
2020/12/05 04:17:55;;;;;;;26.53;12.50;;;2.40;99.90;;;;;;5042293;28;20180;-81
2020/12/05 04:20:21;;;;;;;28.67;13.02;;;2.50;99.90;;;;;;5037792;28;20416;-80
2020/12/05 04:22:46;;;;;;;31.97;12.63;;;2.60;99.90;;;;;;5019450;28;20264;-81
2020/12/05 04:25:12;;;;;;;31.93;12.00;;;2.70;99.90;;;;;;5019345;28;20243;-80
2020/12/05 04:27:38;;;;;;;22.63;11.77;;;2.80;99.90;;;;;;5019785;28;20319;-81
2020/12/05 04:30:06;;;;;;;29.70;12.17;;;2.70;99.90;;;;;;5019720;28;20568;-81
2020/12/05 04:32:32;;;;;;;20.35;9.82;;;2.80;99.90;;;;;;5019607;28;20224;-80
2020/12/05 04:34:59;;;;;;;24.03;12.57;;;2.90;99.90;;;;;;5003254;28;20594;-79
2020/12/05 04:37:28;;;;;;;18.70;10.63;;;2.80;99.90;;;;;;5040416;28;20173;-82
2020/12/05 04:39:54;;;;;;;18.40;10.50;;;3.00;99.90;;;;;;5039906;28;20530;-82
2020/12/05 04:42:22;;;;;;;22.23;12.73;;;2.90;99.90;;;;;;5039167;28;20188;-81
2020/12/05 04:44:53;;;;;;;21.50;11.57;;;2.90;99.90;;;;;;5024165;28;20221;-81
2020/12/05 04:47:18;;;;;;;26.58;12.38;;;2.80;99.90;;;;;;5007735;28;20177;-81
2020/12/05 04:49:45;;;;;;;25.00;12.37;;;2.80;99.90;;;;;;5039178;28;20461;-80
2020/12/05 04:52:25;;;;;;;23.90;10.88;;;3.00;99.90;;;;;;5040173;28;20771;-82
2020/12/05 04:54:53;;;;;;;21.80;11.27;;;3.10;99.90;;;;;;5039233;28;20188;-81
2020/12/05 04:57:24;;;;;;;26.00;12.70;;;3.10;99.90;;;;;;5038723;28;20177;-82
2020/12/05 04:59:52;;;;;;;16.40;10.77;;;3.20;99.90;;;;;;5042610;28;20194;-81
2020/12/05 05:02:32;;;;;;;21.48;12.38;;;3.10;99.90;;;;;;5041019;28;20166;-81
2020/12/05 05:05:00;;;;;;;18.85;8.35;;;3.20;99.90;;;;;;5025330;28;20339;-81
2020/12/05 05:07:27;;;;;;;19.88;10.52;;;3.40;99.90;;;;;;5040746;28;20188;-81
2020/12/05 05:10:06;;;;;;;21.63;10.95;;;3.40;99.90;;;;;;5038630;28;20209;-79
2020/12/05 05:12:33;;;;;;;23.42;11.60;;;3.40;99.90;;;;;;5026464;28;20181;-81
2020/12/05 05:15:20;;;;;;;17.33;11.40;;;3.40;99.90;;;;;;5044151;28;20285;-81
2020/12/05 05:17:49;;;;;;;27.80;10.52;;;3.50;99.90;;;;;;5040862;28;20698;-82
2020/12/05 05:20:22;;;;;;;23.75;11.90;;;3.50;99.90;;;;;;5026263;28;20253;-81
2020/12/05 05:23:06;;;;;;;23.75;11.90;;;3.50;99.90;;;;;;5029721;28;20256;-80
2020/12/05 05:25:53;;;;;;;21.00;10.93;;;3.50;99.90;;;;;;5040719;28;20672;-82
2020/12/05 05:28:40;;;;;;;17.65;11.02;;;3.60;99.90;;;;;;5046921;28;20181;-81
2020/12/05 05:31:15;;;;;;;17.42;10.55;;;3.70;99.90;;;;;;5042912;28;20187;-82
2020/12/05 05:33:46;;;;;;;20.20;11.00;;;3.60;99.90;;;;;;5045124;28;20169;-82
2020/12/05 05:36:29;;;;;;;18.80;11.02;;;3.60;99.90;;;;;;5045316;28;20190;-82
2020/12/05 05:39:08;;;;;;;17.65;10.90;;;3.70;99.90;;;;;;5029002;28;20173;-82
2020/12/05 05:41:37;;;;;;;25.98;12.55;;;3.70;99.90;;;;;;5044799;28;20567;-82
2020/12/05 05:44:11;;;;;;;23.38;11.35;;;3.60;99.90;;;;;;5043345;28;20180;-83
2020/12/05 05:46:42;;;;;;;21.33;11.35;;;3.70;99.90;;;;;;5029157;28;20267;-83
2020/12/05 05:49:13;;;;;;;16.67;9.15;;;3.70;99.90;;;;;;5029679;28;20236;-82
2020/12/05 05:51:49;;;;;;;23.67;11.38;;;3.50;99.90;;;;;;5045609;28;20702;-84
2020/12/05 05:54:21;;;;;;;21.13;10.43;;;3.60;99.90;;;;;;5028782;28;20173;-81
2020/12/05 05:56:53;;;;;;;20.63;9.55;;;3.60;99.90;;;;;;5042880;28;20223;-82
2020/12/05 05:59:21;;;;;;;26.67;12.73;;;3.50;99.90;;;;;;5042413;28;20185;-82
2020/12/05 06:01:50;;;;;;;21.45;10.52;;;3.10;99.90;;;;;;5042618;28;20178;-82
2020/12/05 06:04:25;;;;;;;16.75;10.07;;;3.20;99.90;;;;;;5043270;28;20182;-82
2020/12/05 06:06:52;;;;;;;17.98;10.30;;;3.10;99.90;;;;;;5040087;28;20651;-83
2020/12/05 06:09:48;;;;;;;16.00;9.80;;;3.30;99.90;;;;;;5039767;28;20253;-82
2020/12/05 06:12:38;;;;;;;20.95;11.55;;;3.20;99.90;;;;;;5039144;28;20256;-83
2020/12/05 06:15:04;;;;;;;14.43;9.27;;;3.40;99.90;;;;;;5038305;28;20208;-81
2020/12/05 06:17:29;;;;;;;17.80;9.70;;;3.40;99.90;;;;;;5040811;28;20169;-82
2020/12/05 06:19:56;;;;;;;19.67;11.87;;;3.40;99.90;;;;;;5040841;28;20169;-82
2020/12/05 06:22:51;;;;;;;22.25;12.15;;;3.40;99.90;;;;;;5040029;28;20169;-81
2020/12/05 06:25:21;;;;;;;21.42;9.88;;;3.50;99.90;;;;;;5039718;28;20189;-81
2020/12/05 06:27:54;;;;;;;18.67;10.55;;;3.60;99.90;;;;;;5043323;28;20256;-82
2020/12/05 06:30:20;;;;;;;19.75;9.52;;;3.50;99.90;;;;;;5037631;28;20219;-82
2020/12/05 06:32:49;;;;;;;29.00;10.00;;;3.60;99.90;;;;;;5038885;28;20212;-83
2020/12/05 06:35:21;;;;;;;13.88;9.18;;;3.60;99.90;;;;;;5036267;28;20196;-82
2020/12/05 06:37:51;;;;;;;14.57;10.02;;;3.70;99.90;;;;;;5036763;28;20166;-82
2020/12/05 06:40:18;;;;;;;21.48;12.00;;;3.60;99.90;;;;;;5044133;28;20180;-83
2020/12/05 06:42:57;;;;;;;26.27;12.18;;;3.60;99.90;;;;;;5050993;28;20200;-83
2020/12/05 06:45:25;;;;;;;17.15;9.80;;;3.70;99.90;;;;;;5031805;28;20203;-82
2020/12/05 06:47:52;;;;;;;21.67;10.02;;;3.40;99.90;;;;;;5055103;28;20185;-83
2020/12/05 06:50:35;;;;;;;21.55;11.10;;;3.10;99.90;;;;;;5051668;28;20208;-82
2020/12/05 06:53:00;;;;;;;26.98;11.68;;;2.90;99.90;;;;;;5051492;28;20177;-81
2020/12/05 06:55:32;;;;;;;18.97;9.70;;;2.90;99.90;;;;;;5045288;28;20212;-78
2020/12/05 06:58:06;;;;;;;20.40;9.55;;;3.00;99.90;;;;;;5046497;28;20165;-80
2020/12/05 07:00:36;;;;;;;19.02;10.38;;;2.90;99.90;;;;;;5026876;28;20187;-80
2020/12/05 07:03:06;;;;;;;15.90;9.30;;;2.90;99.90;;;;;;5039894;28;20205;-79
2020/12/05 07:05:48;;;;;;;16.23;9.38;;;3.20;99.90;;;;;;5038843;28;20224;-79
2020/12/05 07:08:36;;;;;;;20.08;11.15;;;3.20;99.90;;;;;;5040121;28;20652;-78
2020/12/05 07:11:12;;;;;;;16.00;9.38;;;3.30;99.90;;;;;;5039898;28;20185;-78
2020/12/05 07:13:47;;;;;;;19.23;10.30;;;3.40;99.90;;;;;;5055481;28;20199;-80
2020/12/05 07:16:22;;;;;;;16.75;10.02;;;3.50;99.90;;;;;;5039407;28;20199;-79
2020/12/05 07:18:50;;;;;;;20.17;9.73;;;3.40;99.90;;;;;;5039920;28;20628;-79
2020/12/05 07:21:16;;;;;;;18.02;10.80;;;3.50;99.90;;;;;;5040712;28;20173;-79
2020/12/05 07:23:42;;;;;;;20.98;11.55;;;3.60;99.90;;;;;;5041338;28;20181;-79
2020/12/05 07:26:08;;;;;;;19.17;10.27;;;3.50;99.90;;;;;;5042148;28;20204;-79
2020/12/05 07:28:34;;;;;;;17.03;9.80;;;3.60;99.90;;;;;;5061680;28;20204;-79
2020/12/05 07:31:01;;;;;;;24.52;11.68;;;3.60;99.90;;;;;;5046607;28;20531;-80
2020/12/05 07:33:28;;;;;;;19.27;10.35;;;3.50;99.90;;;;;;5021723;28;20174;-79
2020/12/05 07:35:58;;;;;;;21.42;10.02;;;3.50;99.90;;;;;;5039106;28;20200;-79
2020/12/05 07:38:26;;;;;;;19.38;10.32;;;3.80;99.90;;;;;;5036812;28;20170;-80
2020/12/05 07:40:51;;;;;;;25.00;11.20;;;3.80;99.90;;;;;;5037716;28;20189;-79
2020/12/05 07:43:19;;;;;;;17.23;9.60;;;3.60;99.90;;;;;;5038107;28;20182;-79
2020/12/05 07:45:46;;;;;;;15.82;10.07;;;3.70;99.90;;;;;;5019253;28;20239;-80
2020/12/05 07:48:17;;;;;;;21.60;9.73;;;3.80;99.90;;;;;;5020949;28;20188;-81
2020/12/05 07:50:43;;;;;;;14.82;9.27;;;3.80;99.90;;;;;;5022474;28;20208;-82
2020/12/05 07:53:37;;;;;;;19.67;11.30;;;3.90;99.90;;;;;;5037497;28;20222;-79
2020/12/05 07:56:19;;;;;;;20.60;10.23;;;4.00;99.90;;;;;;5039519;28;20272;-81
2020/12/05 07:58:46;;;;;;;20.33;10.00;;;4.00;99.90;;;;;;5038004;28;20185;-80
2020/12/05 08:01:29;;;;;;;19.17;10.10;;;4.10;99.90;;;;;;5021117;28;20174;-82
2020/12/05 08:04:28;;;;;;;18.80;10.45;;;4.10;99.90;;;;;;5040687;28;20165;-80
2020/12/05 08:07:04;;;;;;;24.00;11.30;;;4.20;99.90;;;;;;5022028;28;20262;-82
2020/12/05 08:09:36;;;;;;;17.73;10.65;;;4.20;99.90;;;;;;5023469;28;20224;-83
2020/12/05 08:12:12;;;;;;;17.23;9.70;;;4.20;99.90;;;;;;5021670;28;20192;-83
2020/12/05 08:14:41;;;;;;;22.77;11.15;;;4.30;99.90;;;;;;5025557;28;20185;-81
2020/12/05 08:17:11;;;;;;;19.88;11.27;;;4.20;99.90;;;;;;5044209;28;20556;-83
2020/12/05 08:19:41;;;;;;;20.63;9.60;;;4.20;99.90;;;;;;5044929;28;20177;-82
2020/12/05 08:22:09;;;;;;;19.40;11.05;;;4.20;99.90;;;;;;5043858;28;20181;-85
2020/12/05 08:24:37;;;;;;;19.67;10.73;;;4.30;99.90;;;;;;5044090;28;20197;-82
2020/12/05 08:27:04;;;;;;;16.52;9.45;;;4.30;99.90;;;;;;5024673;28;20181;-84
2020/12/05 08:29:30;;;;;;;14.93;9.52;;;4.40;99.90;;;;;;5025517;28;20197;-82
2020/12/05 08:31:56;;;;;;;23.75;12.00;;;4.50;99.90;;;;;;5061528;28;20173;-83
2020/12/05 08:34:29;;;;;;;22.75;13.40;;;4.50;99.90;;;;;;5033327;28;20263;-83
2020/12/05 08:36:59;;;;;;;23.50;12.75;;;4.60;99.90;;;;;;5049569;28;20264;-82
2020/12/05 08:39:28;;;;;;;28.73;14.10;;;4.60;99.90;;;;;;5033459;28;20185;-83
2020/12/05 08:41:54;;;;;;;33.97;16.15;;;4.60;99.90;;;;;;5050167;28;20182;-87
2020/12/05 08:44:21;;;;;;;32.75;16.13;;;4.80;99.90;;;;;;5049967;28;20169;-81
2020/12/05 08:47:03;;;;;;;31.27;14.57;;;4.80;99.90;;;;;;5048351;28;20204;-82
2020/12/05 08:49:35;;;;;;;24.77;12.85;;;4.90;99.90;;;;;;5046856;28;20193;-81
2020/12/05 08:52:03;;;;;;;22.80;12.75;;;4.90;99.90;;;;;;5047107;28;20177;-86
2020/12/05 08:54:31;;;;;;;23.33;13.40;;;4.90;99.90;;;;;;5047516;28;20231;-83
2020/12/05 08:57:07;;;;;;;26.55;13.57;;;4.90;99.90;;;;;;5050185;28;20170;-82
2020/12/05 08:59:33;;;;;;;20.75;12.55;;;5.00;99.90;;;;;;5050153;28;20571;-83
2020/12/05 09:01:59;;;;;;;21.87;11.97;;;4.90;99.90;;;;;;5045402;28;20178;-83
2020/12/05 09:04:29;;;;;;;27.33;12.60;;;5.10;99.90;;;;;;5044821;28;20439;-82
2020/12/05 09:07:13;;;;;;;23.10;12.50;;;5.00;99.90;;;;;;5045858;28;20205;-84
2020/12/05 09:09:40;;;;;;;22.70;12.20;;;5.10;99.90;;;;;;5047798;28;20201;-84
2020/12/05 09:12:11;;;;;;;19.45;11.30;;;5.10;99.90;;;;;;5044132;28;20235;-83
2020/12/05 09:14:38;;;;;;;16.77;10.23;;;5.10;99.90;;;;;;5046218;28;20204;-83
2020/12/05 09:17:22;;;;;;;22.67;10.80;;;5.20;99.90;;;;;;5047897;28;20182;-84
2020/12/05 09:19:48;;;;;;;18.02;10.68;;;5.30;99.90;;;;;;5045874;28;20716;-83
2020/12/05 09:22:34;;;;;;;18.75;10.38;;;5.40;99.90;;;;;;5044679;28;20249;-84
2020/12/05 09:25:00;;;;;;;16.85;8.02;;;5.50;99.90;;;;;;5047296;28;20205;-81
2020/12/05 09:27:41;;;;;;;12.05;8.57;;;6.20;99.90;;;;;;5046551;28;20180;-82
2020/12/05 09:30:12;;;;;;;20.48;10.15;;;6.80;99.90;;;;;;5044512;28;20222;-82
2020/12/05 09:32:45;;;;;;;17.52;12.10;;;7.10;99.90;;;;;;5046387;28;20178;-81
2020/12/05 09:35:14;;;;;;;19.45;10.68;;;7.20;99.90;;;;;;5046509;28;20197;-82
2020/12/05 09:37:41;;;;;;;15.50;10.80;;;7.10;99.90;;;;;;5031375;28;20189;-83
2020/12/05 09:40:09;;;;;;;15.27;11.15;;;7.10;99.90;;;;;;5048461;28;20184;-84
2020/12/05 09:42:34;;;;;;;17.70;9.73;;;7.20;99.90;;;;;;5028596;28;20177;-82
2020/12/05 09:45:00;;;;;;;14.03;9.13;;;7.40;99.90;;;;;;5046462;28;20284;-82
2020/12/05 09:47:28;;;;;;;15.77;9.77;;;7.60;99.90;;;;;;5029976;28;20499;-83
2020/12/05 09:49:54;;;;;;;11.75;7.95;;;7.70;99.90;;;;;;5029876;28;20263;-83
2020/12/05 09:52:20;;;;;;;12.00;7.77;;;7.80;99.90;;;;;;5023173;28;20174;-80
2020/12/05 09:54:46;;;;;;;16.23;9.97;;;7.90;99.90;;;;;;5041146;28;20213;-84
2020/12/05 09:57:11;;;;;;;19.33;9.47;;;8.00;99.90;;;;;;5045668;28;20204;-86
2020/12/05 09:59:37;;;;;;;13.67;8.10;;;7.80;99.90;;;;;;5010307;28;20768;-85
2020/12/05 10:02:05;;;;;;;13.20;8.20;;;7.50;99.90;;;;;;5044942;28;20420;-84
2020/12/05 10:04:31;;;;;;;16.27;9.13;;;7.30;99.90;;;;;;5043236;28;20200;-83
2020/12/05 10:06:57;;;;;;;15.70;8.82;;;7.20;99.90;;;;;;5037852;28;20244;-84
2020/12/05 10:09:22;;;;;;;13.65;9.63;;;7.10;99.90;;;;;;5045619;28;20251;-84
2020/12/05 10:11:48;;;;;;;11.83;8.07;;;7.20;99.90;;;;;;5027743;28;20249;-84
2020/12/05 10:14:14;;;;;;;14.90;6.77;;;7.20;99.90;;;;;;5043237;28;20209;-83
2020/12/05 10:16:40;;;;;;;18.30;9.40;;;7.30;99.90;;;;;;5040613;28;20208;-80
2020/12/05 10:19:05;;;;;;;16.73;8.43;;;7.30;99.90;;;;;;5024245;28;20186;-83
2020/12/05 10:21:31;;;;;;;13.83;8.03;;;7.30;99.90;;;;;;5043803;28;20197;-81
2020/12/05 10:23:57;;;;;;;15.70;8.70;;;7.20;99.90;;;;;;5044006;28;20177;-83
2020/12/05 10:26:22;;;;;;;13.73;8.33;;;7.20;99.90;;;;;;5043151;28;20198;-82
2020/12/05 10:28:48;;;;;;;13.40;8.10;;;7.20;99.90;;;;;;5041517;28;20627;-84
2020/12/05 10:31:14;;;;;;;15.30;8.13;;;7.20;99.90;;;;;;5041698;28;20177;-82
2020/12/05 10:33:39;;;;;;;13.67;8.20;;;7.20;99.90;;;;;;5041615;28;20178;-83
2020/12/05 10:36:05;;;;;;;16.67;10.70;;;7.20;99.90;;;;;;5041325;28;20284;-84
2020/12/05 10:38:34;;;;;;;15.53;8.33;;;7.20;99.90;;;;;;5040826;28;20257;-82
2020/12/05 10:41:00;;;;;;;14.60;9.27;;;7.30;99.90;;;;;;5027012;28;20178;-82
2020/12/05 10:43:25;;;;;;;18.07;9.63;;;7.40;99.90;;;;;;5044795;28;20165;-84
2020/12/05 10:45:51;;;;;;;15.23;7.90;;;7.40;99.90;;;;;;5040512;28;20679;-83
2020/12/05 10:48:17;;;;;;;13.80;8.27;;;7.50;99.90;;;;;;5042910;28;20185;-82
2020/12/05 10:50:45;;;;;;;11.80;7.70;;;7.50;99.90;;;;;;5008455;28;20205;-84
2020/12/05 10:53:11;;;;;;;13.73;8.00;;;7.60;99.90;;;;;;5044360;28;20181;-82
2020/12/05 10:55:36;;;;;;;14.63;8.70;;;7.60;99.90;;;;;;5045078;28;20217;-80
2020/12/05 10:58:02;;;;;;;14.60;7.83;;;7.70;99.90;;;;;;5012468;28;20193;-82
2020/12/05 11:00:28;;;;;;;12.53;7.90;;;7.70;99.90;;;;;;5042746;28;20505;-84
2020/12/05 11:02:53;;;;;;;11.17;7.43;;;7.70;99.90;;;;;;5042100;28;20199;-84
2020/12/05 11:05:19;;;;;;;14.90;7.73;;;7.70;99.90;;;;;;5042504;28;20455;-85
2020/12/05 11:07:45;;;;;;;14.93;7.17;;;7.70;99.90;;;;;;5044343;28;20216;-85
2020/12/05 11:10:10;;;;;;;11.07;7.20;;;7.70;99.90;;;;;;5011879;28;20575;-84
2020/12/05 11:12:36;;;;;;;13.70;8.57;;;7.70;99.90;;;;;;5044464;28;20199;-84
2020/12/05 11:15:03;;;;;;;16.50;7.93;;;7.70;99.90;;;;;;5045491;28;20189;-83
2020/12/05 11:17:28;;;;;;;14.90;8.35;;;7.70;99.90;;;;;;5043641;28;20427;-84
2020/12/05 11:19:54;;;;;;;13.20;7.50;;;7.60;99.90;;;;;;5047020;28;20245;-85
2020/12/05 11:22:20;;;;;;;12.53;6.93;;;7.60;99.90;;;;;;5046698;28;20236;-84
2020/12/05 11:24:45;;;;;;;14.43;6.50;;;7.60;99.90;;;;;;5046124;28;20296;-84
2020/12/05 11:27:11;;;;;;;21.67;9.57;;;7.60;99.90;;;;;;5045784;28;20192;-83
2020/12/05 11:29:37;;;;;;;11.50;7.97;;;7.60;99.90;;;;;;5041839;28;20205;-83
2020/12/05 11:32:02;;;;;;;17.03;8.50;;;7.60;99.90;;;;;;5044150;28;20216;-85
2020/12/05 11:34:28;;;;;;;11.43;6.23;;;7.60;99.90;;;;;;5029042;28;20213;-85
2020/12/05 11:36:54;;;;;;;13.40;8.33;;;7.70;99.90;;;;;;5044029;28;20426;-87
2020/12/05 11:39:20;;;;;;;16.90;9.47;;;7.70;99.90;;;;;;5045932;28;20264;-85
2020/12/05 11:41:47;;;;;;;14.40;8.10;;;7.70;99.90;;;;;;5043612;28;20177;-85
2020/12/05 11:44:13;;;;;;;12.60;7.95;;;7.70;99.90;;;;;;5047069;28;20253;-85
2020/12/05 11:46:39;;;;;;;12.27;7.38;;;7.70;99.90;;;;;;5045116;28;20209;-85
2020/12/05 11:49:04;;;;;;;15.27;8.20;;;7.80;99.90;;;;;;5044500;28;20257;-85
2020/12/05 11:51:30;;;;;;;11.97;7.87;;;7.80;99.90;;;;;;5046276;28;20173;-86
2020/12/05 11:53:56;;;;;;;14.57;8.70;;;7.90;99.90;;;;;;5045188;28;20200;-86
2020/12/05 11:56:22;;;;;;;15.80;9.53;;;7.90;99.90;;;;;;5044575;28;20280;-85
2020/12/05 11:58:47;;;;;;;14.40;9.30;;;8.00;99.90;;;;;;5027660;28;20235;-85
2020/12/05 12:01:16;;;;;;;12.13;7.90;;;8.00;99.90;;;;;;5028319;28;20424;-85
2020/12/05 12:03:42;;;;;;;17.38;8.15;;;8.00;99.90;;;;;;5028194;28;20188;-86
2020/12/05 12:06:19;;;;;;;14.60;7.63;;;8.00;99.90;;;;;;5028203;28;20196;-85
2020/12/05 12:08:45;;;;;;;23.38;8.88;;;8.00;99.90;;;;;;5045528;28;20173;-85
2020/12/05 12:11:16;;;;;;;12.13;7.18;;;8.10;99.90;;;;;;5045722;28;20260;-85
2020/12/05 12:13:42;;;;;;;21.13;9.60;;;8.00;99.90;;;;;;5044885;28;20185;-86
2020/12/05 12:16:08;;;;;;;14.03;9.70;;;7.90;99.90;;;;;;5043825;28;20200;-85
2020/12/05 12:18:33;;;;;;;12.00;8.90;;;7.90;99.90;;;;;;5041789;28;20169;-85
2020/12/05 12:20:59;;;;;;;15.40;9.30;;;7.90;99.90;;;;;;5042053;28;20408;-85
2020/12/05 12:23:24;;;;;;;16.40;9.70;;;7.80;99.90;;;;;;5023263;28;20323;-85
2020/12/05 12:25:50;;;;;;;13.87;9.33;;;7.80;99.90;;;;;;5040458;28;20208;-85
2020/12/05 12:28:16;;;;;;;15.73;8.30;;;7.90;99.90;;;;;;5036983;28;20177;-84
2020/12/05 12:30:44;;;;;;;19.00;8.70;;;7.70;99.90;;;;;;5038485;28;20201;-84
2020/12/05 12:33:10;;;;;;;15.02;8.50;;;7.80;99.90;;;;;;5034105;28;20177;-86
2020/12/05 12:35:35;;;;;;;12.53;8.50;;;7.70;99.90;;;;;;5034156;28;20304;-86
2020/12/05 12:38:01;;;;;;;15.70;8.57;;;7.70;99.90;;;;;;5043697;28;20197;-85
2020/12/05 12:40:27;;;;;;;25.10;10.77;;;7.70;99.90;;;;;;5041889;28;20707;-85
2020/12/05 12:42:57;;;;;;;15.43;8.63;;;7.70;99.90;;;;;;5040851;28;20280;-83
2020/12/05 12:45:31;;;;;;;16.35;9.57;;;7.60;99.90;;;;;;5025828;28;20579;-85
2020/12/05 12:48:40;;;;;;;16.08;8.85;;;7.70;99.90;;;;;;5045703;28;20674;-84
2020/12/05 12:50:49;;;;;;;12.20;8.00;;;7.60;99.90;;;;;;5047230;28;20213;-85